Time;durP1;ratioP1;P1;durP2;ratioP2;P2;SDS_P1;SDS_P2;PMS_P1;PMS_P2;Temp;Humidity;BMP_temperature;BMP_pressure;BME280_temperature;BME280_humidity;BME280_pressure;Samples;Min_cycle;Max_cycle;Signal;HPM_P1;HPM_P2
2022/07/13 00:00:27;;;;;;;3.00;2.80;;;19.50;99.90;;;;;;5076368;28;20473;-77
2022/07/13 00:02:54;;;;;;;3.73;2.93;;;19.60;99.90;;;;;;5078763;28;20441;-78
2022/07/13 00:05:22;;;;;;;2.60;2.40;;;19.80;99.90;;;;;;5078320;28;20550;-78
2022/07/13 00:07:49;;;;;;;4.27;3.50;;;19.80;99.90;;;;;;5078273;28;20492;-77
2022/07/13 00:10:16;;;;;;;6.57;3.10;;;19.80;99.90;;;;;;5078617;28;20461;-78
2022/07/13 00:12:42;;;;;;;2.80;2.60;;;19.80;99.90;;;;;;5076981;28;20452;-77
2022/07/13 00:15:10;;;;;;;3.23;2.80;;;19.80;99.90;;;;;;5076036;28;20452;-77
2022/07/13 00:17:37;;;;;;;3.70;2.90;;;19.70;99.90;;;;;;5076269;28;20456;-77
2022/07/13 00:20:04;;;;;;;2.97;2.77;;;19.70;99.90;;;;;;5075641;28;20468;-77
2022/07/13 00:22:32;;;;;;;3.33;3.03;;;19.70;99.90;;;;;;5082568;28;20451;-78
2022/07/13 00:24:59;;;;;;;3.40;2.90;;;19.70;99.90;;;;;;5085435;28;20449;-77
2022/07/13 00:27:26;;;;;;;4.00;2.40;;;19.70;99.90;;;;;;5080513;28;20461;-77
2022/07/13 00:29:52;;;;;;;3.10;2.77;;;19.70;99.90;;;;;;5075783;28;20858;-77
2022/07/13 00:32:19;;;;;;;2.43;2.30;;;19.70;99.90;;;;;;5075987;28;20452;-77
2022/07/13 00:34:46;;;;;;;2.53;2.30;;;19.70;99.90;;;;;;5086173;28;20528;-78
2022/07/13 00:37:13;;;;;;;5.47;2.97;;;19.70;99.90;;;;;;5094188;28;20441;-77
2022/07/13 00:39:42;;;;;;;2.73;2.43;;;19.60;99.90;;;;;;5096741;28;20460;-78
2022/07/13 00:42:09;;;;;;;2.90;2.60;;;19.50;99.90;;;;;;5083981;28;20452;-78
2022/07/13 00:44:36;;;;;;;3.60;2.70;;;19.60;99.90;;;;;;5075859;28;20445;-77
2022/07/13 00:47:03;;;;;;;4.13;2.60;;;19.60;99.90;;;;;;5075960;28;20444;-78
2022/07/13 00:49:31;;;;;;;2.50;2.30;;;19.60;99.90;;;;;;5076309;28;20541;-78
2022/07/13 00:51:58;;;;;;;3.13;2.20;;;19.60;99.90;;;;;;5076855;28;20532;-78
2022/07/13 00:54:28;;;;;;;2.50;2.30;;;19.60;99.90;;;;;;5076744;28;20444;-77
2022/07/13 00:56:58;;;;;;;2.43;2.23;;;19.60;99.90;;;;;;5080879;28;20481;-78
2022/07/13 00:59:25;;;;;;;3.00;2.80;;;19.60;99.90;;;;;;5092374;28;20478;-78
2022/07/13 01:01:53;;;;;;;2.33;2.13;;;19.80;99.90;;;;;;5090716;28;20451;-78
2022/07/13 01:04:21;;;;;;;2.53;2.33;;;19.60;99.90;;;;;;5079290;28;20979;-78
2022/07/13 01:06:49;;;;;;;4.67;2.03;;;19.60;99.90;;;;;;5077450;28;20452;-78
2022/07/13 01:09:17;;;;;;;2.03;1.83;;;19.40;99.90;;;;;;5076572;28;20484;-79
2022/07/13 01:11:44;;;;;;;2.70;2.50;;;19.40;99.90;;;;;;5076792;28;20481;-78
2022/07/13 01:14:13;;;;;;;2.40;2.20;;;19.50;99.90;;;;;;5076618;28;20471;-77
2022/07/13 01:16:41;;;;;;;2.33;2.23;;;19.50;99.90;;;;;;5078721;28;20455;-78
2022/07/13 01:19:11;;;;;;;2.37;2.17;;;19.50;99.90;;;;;;5077391;28;20464;-78
2022/07/13 01:21:41;;;;;;;3.07;2.60;;;19.60;99.90;;;;;;5077432;28;20900;-78
2022/07/13 01:24:10;;;;;;;2.77;2.00;;;19.60;99.90;;;;;;5077269;28;20449;-77
2022/07/13 01:26:37;;;;;;;2.90;2.70;;;19.60;99.90;;;;;;5076871;28;20955;-78
2022/07/13 01:29:07;;;;;;;2.50;2.10;;;19.60;99.90;;;;;;5074700;28;20828;-77
2022/07/13 01:31:35;;;;;;;2.20;2.10;;;19.60;99.90;;;;;;5074606;28;20449;-79
2022/07/13 01:34:02;;;;;;;5.00;2.60;;;19.60;99.90;;;;;;5075301;28;20453;-77
2022/07/13 01:36:29;;;;;;;3.87;2.80;;;19.50;99.90;;;;;;5074898;28;20445;-77
2022/07/13 01:38:57;;;;;;;2.30;2.10;;;19.50;99.90;;;;;;5075494;28;20469;-77
2022/07/13 01:41:25;;;;;;;2.53;2.33;;;19.50;99.90;;;;;;5076106;28;20505;-78
2022/07/13 01:43:53;;;;;;;2.80;2.60;;;19.50;99.90;;;;;;5076446;28;20440;-78
2022/07/13 01:46:20;;;;;;;2.20;2.00;;;19.50;99.90;;;;;;5076843;28;20499;-77
2022/07/13 01:48:46;;;;;;;2.23;2.03;;;19.70;99.90;;;;;;5080734;28;20480;-77
2022/07/13 01:51:13;;;;;;;2.80;2.17;;;19.50;99.90;;;;;;5084380;28;20455;-77
2022/07/13 01:53:40;;;;;;;3.03;2.83;;;19.50;99.90;;;;;;5080558;28;20445;-78
2022/07/13 01:56:07;;;;;;;2.73;1.93;;;19.40;99.90;;;;;;5076880;28;20449;-78
2022/07/13 01:58:35;;;;;;;2.87;2.67;;;19.40;99.90;;;;;;5076563;28;20452;-78
2022/07/13 02:01:02;;;;;;;2.20;2.10;;;19.40;99.90;;;;;;5076126;28;20471;-78
2022/07/13 02:03:29;;;;;;;5.00;2.13;;;19.30;99.90;;;;;;5075868;28;20484;-78
2022/07/13 02:05:56;;;;;;;2.10;2.00;;;19.30;99.90;;;;;;5075671;28;20499;-78
2022/07/13 02:08:24;;;;;;;1.80;1.70;;;19.30;99.90;;;;;;5075924;28;20485;-78
2022/07/13 02:10:50;;;;;;;2.90;2.70;;;19.20;99.90;;;;;;5075850;28;20953;-78
2022/07/13 02:13:17;;;;;;;3.93;2.23;;;19.20;99.90;;;;;;5075008;28;20455;-78
2022/07/13 02:15:45;;;;;;;3.07;2.60;;;18.90;99.90;;;;;;5074900;28;20951;-78
2022/07/13 02:18:12;;;;;;;2.10;1.97;;;19.10;99.90;;;;;;5075405;28;20819;-78
2022/07/13 02:20:39;;;;;;;2.57;2.37;;;19.40;99.90;;;;;;5075099;28;20465;-78
2022/07/13 02:23:06;;;;;;;2.33;2.13;;;19.10;99.90;;;;;;5075304;28;20437;-78
2022/07/13 02:25:34;;;;;;;4.60;2.60;;;19.20;99.90;;;;;;5075733;28;20448;-78
2022/07/13 02:28:01;;;;;;;2.70;2.50;;;19.30;99.90;;;;;;5074969;28;20455;-78
2022/07/13 02:30:27;;;;;;;4.23;1.97;;;19.20;99.90;;;;;;5074873;28;20554;-78
2022/07/13 02:32:56;;;;;;;2.30;2.20;;;19.20;99.90;;;;;;5075685;28;20556;-78
2022/07/13 02:35:22;;;;;;;2.63;2.43;;;19.20;99.90;;;;;;5078100;28;20444;-78
2022/07/13 02:37:49;;;;;;;2.60;2.40;;;19.20;99.90;;;;;;5077402;28;20849;-80
2022/07/13 02:40:16;;;;;;;2.87;2.67;;;19.20;99.90;;;;;;5075397;28;20826;-79
2022/07/13 02:42:44;;;;;;;2.13;2.03;;;19.10;99.90;;;;;;5075242;28;20495;-79
2022/07/13 02:45:11;;;;;;;2.20;2.00;;;19.10;99.90;;;;;;5074951;28;20484;-78
2022/07/13 02:47:38;;;;;;;4.43;1.97;;;19.10;99.90;;;;;;5079788;28;20437;-78
2022/07/13 02:50:07;;;;;;;5.33;2.37;;;19.00;99.90;;;;;;5078007;28;20484;-78
2022/07/13 02:52:33;;;;;;;2.60;2.00;;;19.00;99.90;;;;;;5074525;28;20453;-79
2022/07/13 02:55:00;;;;;;;2.13;1.93;;;19.00;99.90;;;;;;5079029;28;20449;-78
2022/07/13 02:57:27;;;;;;;2.67;2.47;;;18.90;99.90;;;;;;5076881;28;20448;-78
2022/07/13 02:59:53;;;;;;;2.70;2.43;;;18.90;99.90;;;;;;5102150;22;20488;-76
2022/07/13 03:02:20;;;;;;;2.57;2.37;;;18.90;99.90;;;;;;5073263;28;20452;-75
2022/07/13 03:04:47;;;;;;;1.83;1.73;;;18.90;99.90;;;;;;5073512;28;20451;-75
2022/07/13 03:07:16;;;;;;;2.40;2.30;;;18.90;99.90;;;;;;5074875;28;20817;-75
2022/07/13 03:09:42;;;;;;;2.80;2.23;;;18.90;99.90;;;;;;5076972;28;20532;-75
2022/07/13 03:12:09;;;;;;;3.00;2.20;;;19.00;99.90;;;;;;5076411;28;20819;-75
2022/07/13 03:14:36;;;;;;;2.17;2.07;;;19.00;99.90;;;;;;5075036;28;20842;-75
2022/07/13 03:17:03;;;;;;;2.83;2.63;;;19.00;99.90;;;;;;5072962;28;20474;-75
2022/07/13 03:19:31;;;;;;;2.43;2.33;;;19.00;99.90;;;;;;5072871;28;20492;-75
2022/07/13 03:21:57;;;;;;;2.77;2.57;;;18.90;99.90;;;;;;5073070;28;20536;-75
2022/07/13 03:24:25;;;;;;;2.83;2.57;;;19.00;99.90;;;;;;5073105;28;20939;-75
2022/07/13 03:26:52;;;;;;;2.87;2.67;;;19.00;99.90;;;;;;5073380;28;20491;-76
2022/07/13 03:29:19;;;;;;;2.67;2.47;;;18.90;99.90;;;;;;5073106;28;20999;-75
2022/07/13 03:31:46;;;;;;;2.40;2.20;;;18.90;99.90;;;;;;5072886;28;20448;-75
2022/07/13 03:34:12;;;;;;;2.40;1.90;;;18.90;99.90;;;;;;5072770;28;20936;-76
2022/07/13 03:36:39;;;;;;;2.50;2.30;;;18.90;99.90;;;;;;5073244;28;20449;-76
2022/07/13 03:39:06;;;;;;;3.30;2.73;;;19.10;99.90;;;;;;5073196;28;20444;-75
2022/07/13 03:41:34;;;;;;;4.57;2.83;;;19.00;99.90;;;;;;5073193;28;20455;-75
2022/07/13 03:44:01;;;;;;;3.17;2.93;;;19.00;99.90;;;;;;5073694;28;20444;-75
2022/07/13 03:46:28;;;;;;;3.63;2.70;;;19.00;99.90;;;;;;5072935;28;20494;-75
2022/07/13 03:48:55;;;;;;;3.67;2.20;;;19.00;99.90;;;;;;5072626;28;20476;-75
2022/07/13 03:51:21;;;;;;;2.30;2.20;;;18.90;99.90;;;;;;5072930;28;20453;-75
2022/07/13 03:53:48;;;;;;;3.27;2.33;;;19.00;99.90;;;;;;5073134;28;20456;-75
2022/07/13 03:56:15;;;;;;;2.93;2.73;;;19.10;99.90;;;;;;5074651;28;20846;-75
2022/07/13 03:58:43;;;;;;;2.47;2.27;;;19.10;99.90;;;;;;5076525;28;20448;-75
2022/07/13 04:01:10;;;;;;;4.43;4.03;;;19.10;99.90;;;;;;5075868;28;21033;-76
2022/07/13 04:03:37;;;;;;;5.50;3.67;;;19.10;99.90;;;;;;5076408;28;20445;-75
2022/07/13 04:06:03;;;;;;;4.57;3.17;;;19.20;99.90;;;;;;5076256;28;20459;-75
2022/07/13 04:08:30;;;;;;;7.10;5.37;;;19.20;99.90;;;;;;5076053;28;20951;-75
2022/07/13 04:10:57;;;;;;;5.93;5.17;;;19.20;99.90;;;;;;5075579;28;21008;-74
2022/07/13 04:13:24;;;;;;;3.73;3.43;;;19.20;99.90;;;;;;5076106;28;20868;-75
2022/07/13 04:15:52;;;;;;;3.77;3.10;;;19.20;99.90;;;;;;5075730;28;20445;-75
2022/07/13 04:18:19;;;;;;;6.70;3.27;;;19.20;99.90;;;;;;5075874;28;20448;-76
2022/07/13 04:20:45;;;;;;;3.23;3.03;;;19.20;99.90;;;;;;5075743;28;20460;-75
2022/07/13 04:23:12;;;;;;;3.33;2.50;;;19.10;99.90;;;;;;5075842;28;20449;-75
2022/07/13 04:25:39;;;;;;;4.27;3.23;;;18.70;99.90;;;;;;5075747;28;20452;-75
2022/07/13 04:28:06;;;;;;;5.10;3.87;;;19.10;99.90;;;;;;5075836;28;20452;-75
2022/07/13 04:30:33;;;;;;;6.07;3.37;;;19.20;99.90;;;;;;5075606;28;20858;-75
2022/07/13 04:33:01;;;;;;;3.37;3.10;;;19.20;99.90;;;;;;5075795;28;20943;-75
2022/07/13 04:35:28;;;;;;;5.53;2.97;;;19.20;99.90;;;;;;5075755;28;20827;-76
2022/07/13 04:37:55;;;;;;;4.03;3.30;;;19.20;99.90;;;;;;5075332;28;20445;-75
2022/07/13 04:40:22;;;;;;;4.67;3.77;;;19.30;99.90;;;;;;5075684;28;20869;-75
2022/07/13 04:42:48;;;;;;;5.90;5.03;;;19.30;99.90;;;;;;5075559;28;20440;-74
2022/07/13 04:45:18;;;;;;;5.40;4.30;;;19.30;99.90;;;;;;5075494;28;20471;-76
2022/07/13 04:47:44;;;;;;;5.53;4.30;;;19.30;99.90;;;;;;5075352;28;20449;-75
2022/07/13 04:50:13;;;;;;;9.33;5.10;;;19.30;99.90;;;;;;5075580;28;20492;-75
2022/07/13 04:52:39;;;;;;;12.40;7.57;;;19.40;99.90;;;;;;5075672;28;20859;-76
2022/07/13 04:55:08;;;;;;;7.07;6.00;;;19.40;99.90;;;;;;5075682;28;20962;-75
2022/07/13 04:57:35;;;;;;;3.30;3.10;;;19.40;99.90;;;;;;5075290;28;20456;-76
2022/07/13 05:00:02;;;;;;;3.73;3.43;;;19.40;99.90;;;;;;5075063;28;20918;-76
2022/07/13 05:02:29;;;;;;;4.43;3.37;;;19.40;99.90;;;;;;5075398;28;20440;-75
2022/07/13 05:04:58;;;;;;;7.87;4.20;;;19.50;99.90;;;;;;5075241;28;20444;-76
2022/07/13 05:07:26;;;;;;;5.60;3.90;;;19.50;99.90;;;;;;5075273;28;20445;-75
2022/07/13 05:09:53;;;;;;;7.53;3.43;;;19.60;99.90;;;;;;5075099;28;20847;-75
2022/07/13 05:12:20;;;;;;;4.17;2.70;;;19.70;99.90;;;;;;5075482;28;20456;-75
2022/07/13 05:14:47;;;;;;;3.90;2.60;;;19.80;99.90;;;;;;5075082;28;20455;-74
2022/07/13 05:17:14;;;;;;;6.63;3.43;;;19.80;99.90;;;;;;5075272;28;20473;-75
2022/07/13 05:19:41;;;;;;;4.13;2.90;;;19.80;99.90;;;;;;5075482;28;20487;-75
2022/07/13 05:22:07;;;;;;;4.53;3.67;;;19.90;99.90;;;;;;5074669;28;20951;-76
2022/07/13 05:24:36;;;;;;;3.60;2.73;;;19.90;99.90;;;;;;5074986;28;20443;-76
2022/07/13 05:27:03;;;;;;;5.93;4.27;;;19.90;99.90;;;;;;5074620;28;20502;-76
2022/07/13 05:29:29;;;;;;;2.77;2.57;;;20.00;99.90;;;;;;5074751;28;21038;-76
2022/07/13 05:31:56;;;;;;;2.90;2.70;;;20.00;99.90;;;;;;5075369;28;20451;-76
2022/07/13 05:34:23;;;;;;;4.53;3.60;;;20.00;99.90;;;;;;5074994;28;20827;-76
2022/07/13 05:36:50;;;;;;;3.83;2.97;;;20.00;99.90;;;;;;5074874;28;20472;-75
2022/07/13 05:39:16;;;;;;;2.90;2.70;;;20.10;99.90;;;;;;5075145;28;20901;-76
2022/07/13 05:41:44;;;;;;;3.40;3.10;;;20.20;99.90;;;;;;5074896;28;20456;-76
2022/07/13 05:44:11;;;;;;;8.50;2.73;;;20.20;99.90;;;;;;5074954;28;20449;-76
2022/07/13 05:46:39;;;;;;;5.80;3.57;;;20.20;99.90;;;;;;5074578;28;21075;-76
2022/07/13 05:49:05;;;;;;;3.27;2.97;;;20.30;99.90;;;;;;5074646;28;20448;-76
2022/07/13 05:51:32;;;;;;;4.30;2.80;;;20.30;99.90;;;;;;5074566;28;20491;-75
2022/07/13 05:53:59;;;;;;;6.13;3.17;;;20.30;99.90;;;;;;5074496;28;20477;-75
2022/07/13 05:56:26;;;;;;;11.27;2.97;;;20.30;99.90;;;;;;5075045;28;20455;-76
2022/07/13 05:58:54;;;;;;;4.03;3.57;;;20.40;99.90;;;;;;5074887;28;20453;-76
2022/07/13 06:01:21;;;;;;;5.20;3.53;;;20.40;99.90;;;;;;5074277;28;20824;-77
2022/07/13 06:03:48;;;;;;;3.70;3.40;;;20.40;99.90;;;;;;5073936;28;20970;-75
2022/07/13 06:06:14;;;;;;;13.07;9.97;;;20.40;99.90;;;;;;5074212;28;20460;-76
2022/07/13 06:08:42;;;;;;;6.00;5.27;;;20.40;99.90;;;;;;5074438;28;20798;-75
2022/07/13 06:11:08;;;;;;;22.73;17.50;;;20.40;99.90;;;;;;5073929;28;20481;-75
2022/07/13 06:13:35;;;;;;;19.80;15.70;;;20.50;99.90;;;;;;5074195;28;20436;-75
2022/07/13 06:16:03;;;;;;;18.80;15.17;;;20.50;99.90;;;;;;5073907;28;20967;-76
2022/07/13 06:18:30;;;;;;;13.13;11.37;;;20.60;99.90;;;;;;5073134;28;20477;-76
2022/07/13 06:20:57;;;;;;;12.77;11.47;;;20.60;99.90;;;;;;5073741;28;20461;-75
2022/07/13 06:23:24;;;;;;;20.43;18.23;;;20.60;99.90;;;;;;5073798;28;20536;-75
2022/07/13 06:25:50;;;;;;;14.70;13.30;;;20.60;99.90;;;;;;5073589;28;20453;-76
2022/07/13 06:28:17;;;;;;;6.50;5.03;;;20.70;99.90;;;;;;5073576;28;20464;-76
2022/07/13 06:30:44;;;;;;;5.20;4.67;;;20.90;99.90;;;;;;5073341;28;20488;-75
2022/07/13 06:33:12;;;;;;;3.50;2.97;;;20.90;99.90;;;;;;5073720;28;20510;-75
2022/07/13 06:35:39;;;;;;;6.17;2.83;;;21.00;99.90;;;;;;5073432;28;20466;-75
2022/07/13 06:38:06;;;;;;;3.70;3.40;;;21.00;99.90;;;;;;5073467;28;20456;-76
2022/07/13 06:40:33;;;;;;;3.73;2.67;;;21.10;99.90;;;;;;5073208;28;20475;-76
2022/07/13 06:43:00;;;;;;;3.03;2.77;;;21.10;99.90;;;;;;5073636;28;20845;-75
2022/07/13 06:45:28;;;;;;;2.60;2.40;;;21.20;99.90;;;;;;5073485;28;20449;-75
2022/07/13 06:47:55;;;;;;;3.83;2.70;;;21.30;99.90;;;;;;5073271;28;20460;-75
2022/07/13 06:50:23;;;;;;;4.10;3.00;;;21.40;99.90;;;;;;5073429;28;20555;-75
2022/07/13 06:52:50;;;;;;;4.83;2.97;;;21.50;99.90;;;;;;5073685;28;20452;-76
2022/07/13 06:55:17;;;;;;;5.93;3.17;;;21.60;99.90;;;;;;5073470;28;20444;-75
2022/07/13 06:57:43;;;;;;;3.40;3.10;;;21.70;99.90;;;;;;5073264;28;20544;-75
2022/07/13 07:00:12;;;;;;;7.33;4.27;;;21.80;99.90;;;;;;5073421;28;20495;-76
2022/07/13 07:02:38;;;;;;;3.83;3.00;;;21.80;99.90;;;;;;5073466;28;20548;-75
2022/07/13 07:05:09;;;;;;;3.40;3.20;;;22.00;99.90;;;;;;5073091;28;20815;-75
2022/07/13 07:07:37;;;;;;;3.27;2.97;;;22.10;99.90;;;;;;5073544;28;20453;-76
2022/07/13 07:10:04;;;;;;;4.00;2.73;;;22.10;99.90;;;;;;5073172;28;20855;-74
2022/07/13 07:12:31;;;;;;;5.03;3.17;;;22.20;99.90;;;;;;5073155;28;20457;-75
2022/07/13 07:14:57;;;;;;;4.73;3.20;;;22.20;99.90;;;;;;5073024;28;20455;-76
2022/07/13 07:17:24;;;;;;;2.80;2.60;;;22.30;99.90;;;;;;5073178;28;20471;-77
2022/07/13 07:19:52;;;;;;;2.67;2.23;;;22.30;99.90;;;;;;5072938;28;21100;-75
2022/07/13 07:22:18;;;;;;;2.40;2.20;;;22.40;99.90;;;;;;5073679;28;20485;-75
2022/07/13 07:24:46;;;;;;;6.43;2.73;;;22.30;99.90;;;;;;5073224;28;20449;-76
2022/07/13 07:27:13;;;;;;;5.53;5.00;;;22.40;99.90;;;;;;5073916;28;20444;-75
2022/07/13 07:29:40;;;;;;;3.47;3.27;;;22.50;99.90;;;;;;5075018;28;20460;-76
2022/07/13 07:32:07;;;;;;;3.60;3.30;;;22.60;99.90;;;;;;5076741;28;20480;-76
2022/07/13 07:34:34;;;;;;;4.20;3.90;;;22.60;99.90;;;;;;5078345;28;20444;-75
2022/07/13 07:37:00;;;;;;;3.20;3.00;;;22.60;99.90;;;;;;5077196;28;20487;-75
2022/07/13 07:39:28;;;;;;;2.77;2.57;;;22.70;99.90;;;;;;5076574;28;20485;-76
2022/07/13 07:42:01;;;;;;;4.20;3.33;;;22.80;99.90;;;;;;5078075;28;20476;-78
2022/07/13 07:44:29;;;;;;;5.13;3.53;;;22.80;99.90;;;;;;5078628;28;20444;-76
2022/07/13 07:46:57;;;;;;;4.97;2.67;;;22.90;99.90;;;;;;5084747;28;20437;-77
2022/07/13 07:49:27;;;;;;;4.60;2.10;;;23.00;99.90;;;;;;5080310;28;20481;-78
2022/07/13 07:51:55;;;;;;;3.87;3.57;;;23.10;99.90;;;;;;5077936;28;20472;-78
2022/07/13 07:54:22;;;;;;;2.80;2.60;;;23.10;99.90;;;;;;5077346;28;20452;-77
2022/07/13 07:56:51;;;;;;;3.90;2.90;;;23.20;99.90;;;;;;5077414;28;20445;-76
2022/07/13 07:59:21;;;;;;;3.13;2.20;;;23.20;99.90;;;;;;5076265;28;20538;-76
2022/07/13 08:01:51;;;;;;;4.80;2.63;;;23.20;99.90;;;;;;5077031;28;20425;-75
2022/07/13 08:04:18;;;;;;;3.30;2.53;;;23.20;99.90;;;;;;5076020;28;20523;-75
2022/07/13 08:06:47;;;;;;;4.73;3.60;;;23.20;99.90;;;;;;5076376;28;20883;-75
2022/07/13 08:09:18;;;;;;;4.30;3.20;;;23.20;99.90;;;;;;5076048;28;20445;-76
2022/07/13 08:11:47;;;;;;;3.43;2.23;;;23.40;99.90;;;;;;5076280;28;20469;-76
2022/07/13 08:14:15;;;;;;;3.97;3.67;;;23.50;99.90;;;;;;5076532;28;20820;-76
2022/07/13 08:16:45;;;;;;;4.80;3.93;;;23.60;99.90;;;;;;5076124;28;20425;-76
2022/07/13 08:19:12;;;;;;;3.00;2.57;;;23.50;99.90;;;;;;5076121;28;20429;-75
2022/07/13 08:21:39;;;;;;;5.03;2.67;;;23.70;99.90;;;;;;5077072;28;20457;-75
2022/07/13 08:24:06;;;;;;;2.80;2.60;;;23.80;99.90;;;;;;5076227;28;20453;-75
2022/07/13 08:26:33;;;;;;;4.83;3.03;;;23.80;99.90;;;;;;5076248;28;20887;-76
2022/07/13 08:29:02;;;;;;;5.27;4.77;;;23.60;99.90;;;;;;5076667;28;20474;-77
2022/07/13 08:31:29;;;;;;;2.90;2.70;;;23.70;99.90;;;;;;5077372;28;20469;-76
2022/07/13 08:39:32;;;;;;;3.80;1.77;;;23.90;99.90;;;;;;5077235;28;20865;-76
2022/07/13 08:42:01;;;;;;;4.33;4.00;;;24.00;99.90;;;;;;5076625;28;20451;-77
2022/07/13 08:44:29;;;;;;;5.00;3.50;;;24.10;99.90;;;;;;5077986;28;20456;-77
2022/07/13 08:47:19;;;;;;;5.53;3.90;;;24.20;99.90;;;;;;5078058;28;20467;-78
2022/07/13 08:50:05;;;;;;;6.00;5.23;;;24.40;99.90;;;;;;5078006;28;20445;-76
2022/07/13 08:52:39;;;;;;;5.30;4.20;;;24.50;99.90;;;;;;5077527;28;20482;-76
2022/07/13 08:55:10;;;;;;;4.33;3.13;;;24.60;99.90;;;;;;5077165;28;20459;-77
2022/07/13 08:57:40;;;;;;;2.77;2.57;;;24.70;99.90;;;;;;5076467;28;20468;-76
2022/07/13 09:00:12;;;;;;;3.70;2.60;;;24.80;99.90;;;;;;5077031;28;20572;-78
2022/07/13 09:02:39;;;;;;;3.17;2.10;;;24.80;99.90;;;;;;5076373;28;20480;-77
2022/07/13 09:05:11;;;;;;;2.63;2.50;;;24.80;99.90;;;;;;5076314;28;20456;-77
2022/07/13 09:07:38;;;;;;;2.63;2.43;;;24.90;99.90;;;;;;5075802;28;20425;-77
2022/07/13 09:10:05;;;;;;;2.70;2.37;;;24.90;99.90;;;;;;5075221;28;20481;-78
2022/07/13 09:12:33;;;;;;;5.80;5.00;;;25.00;99.90;;;;;;5076706;28;20480;-77
2022/07/13 09:15:06;;;;;;;3.77;3.20;;;25.20;99.90;;;;;;5076179;28;20815;-77
2022/07/13 09:17:40;;;;;;;4.40;4.00;;;25.20;99.90;;;;;;5077547;28;20456;-77
2022/07/13 09:20:22;;;;;;;3.40;3.10;;;25.10;99.90;;;;;;5077291;28;20463;-77
2022/07/13 09:22:54;;;;;;;2.63;2.40;;;25.10;99.90;;;;;;5077896;28;20461;-76
2022/07/13 09:25:32;;;;;;;3.13;2.83;;;25.10;99.90;;;;;;5078307;28;20947;-76
2022/07/13 09:28:07;;;;;;;3.50;3.20;;;25.10;99.90;;;;;;5078512;28;20828;-76
2022/07/13 09:30:45;;;;;;;3.27;2.97;;;25.10;99.90;;;;;;5077783;28;20484;-75
2022/07/13 09:33:14;;;;;;;2.70;2.50;;;25.70;99.90;;;;;;5076883;28;20463;-77
2022/07/13 09:35:46;;;;;;;3.20;2.57;;;25.30;99.90;;;;;;5075678;28;20460;-76
2022/07/13 09:38:32;;;;;;;4.13;2.40;;;25.60;99.90;;;;;;5076275;28;20475;-77
2022/07/13 09:41:17;;;;;;;2.77;2.43;;;25.60;99.90;;;;;;5076246;28;20445;-76
2022/07/13 09:46:57;;;;;;;3.87;3.60;;;25.80;99.90;;;;;;5057977;28;20428;-76
2022/07/13 09:49:35;;;;;;;6.57;2.10;;;25.80;99.90;;;;;;5076420;28;20469;-75
2022/07/13 09:52:07;;;;;;;8.60;2.63;;;25.80;99.90;;;;;;5076353;28;20472;-77
2022/07/13 09:54:39;;;;;;;2.40;1.90;;;25.80;99.90;;;;;;5075585;28;20440;-76
2022/07/13 09:57:13;;;;;;;2.27;2.07;;;25.90;99.90;;;;;;5076303;28;20495;-77
2022/07/13 09:59:44;;;;;;;2.17;2.00;;;25.90;99.90;;;;;;5075380;28;20480;-75
2022/07/13 10:02:14;;;;;;;1.97;1.87;;;26.00;99.90;;;;;;5075767;28;20468;-76
2022/07/13 10:04:47;;;;;;;2.20;2.00;;;26.00;99.90;;;;;;5075764;28;20793;-76
2022/07/13 10:07:18;;;;;;;2.13;2.03;;;26.10;99.90;;;;;;5075465;28;20539;-76
2022/07/13 10:09:45;;;;;;;3.57;3.27;;;26.20;99.90;;;;;;5099744;22;20657;-78
2022/07/13 10:12:12;;;;;;;2.03;1.90;;;26.20;99.90;;;;;;5085684;28;20475;-77
2022/07/13 10:14:39;;;;;;;2.13;1.93;;;26.20;99.90;;;;;;5080641;28;20444;-77
2022/07/13 10:17:09;;;;;;;5.60;4.40;;;26.20;99.90;;;;;;5080047;28;20452;-78
2022/07/13 10:19:43;;;;;;;4.23;3.70;;;26.20;99.90;;;;;;5076394;28;20465;-77
2022/07/13 10:22:11;;;;;;;3.80;3.40;;;26.20;99.90;;;;;;5074702;28;20429;-78
2022/07/13 10:24:51;;;;;;;2.70;2.50;;;26.30;99.90;;;;;;5073921;28;20453;-77
2022/07/13 10:27:22;;;;;;;2.60;2.50;;;26.50;99.90;;;;;;5074211;28;20773;-77
2022/07/13 10:29:50;;;;;;;6.20;1.73;;;26.50;99.90;;;;;;5074312;28;20465;-77
2022/07/13 10:32:18;;;;;;;3.07;2.60;;;26.60;99.90;;;;;;5073427;28;20567;-77
2022/07/13 10:34:53;;;;;;;2.57;2.37;;;26.60;99.90;;;;;;5073809;28;20763;-77
2022/07/13 10:37:19;;;;;;;4.00;3.60;;;26.80;99.90;;;;;;5073670;28;20471;-77
2022/07/13 10:40:14;;;;;;;5.00;4.60;;;26.90;99.90;;;;;;5073471;28;20468;-77
2022/07/13 10:43:12;;;;;;;2.80;2.60;;;26.90;99.90;;;;;;5077778;28;20467;-78
2022/07/13 10:45:42;;;;;;;2.33;2.10;;;26.90;99.90;;;;;;5073648;28;20826;-77
2022/07/13 10:48:11;;;;;;;1.83;1.70;;;26.90;99.90;;;;;;5073306;28;20449;-77
2022/07/13 10:50:48;;;;;;;7.00;6.30;;;26.90;99.90;;;;;;5077703;28;20843;-78
2022/07/13 10:53:16;;;;;;;3.30;2.90;;;26.80;99.90;;;;;;5081248;28;20452;-78
2022/07/13 10:55:48;;;;;;;5.80;2.87;;;26.90;99.90;;;;;;5076962;28;20453;-78
2022/07/13 10:58:43;;;;;;;10.80;5.87;;;27.00;99.90;;;;;;5076346;28;20952;-77
2022/07/13 11:01:33;;;;;;;3.10;2.70;;;27.00;99.90;;;;;;5077182;28;20465;-78
2022/07/13 11:04:00;;;;;;;3.57;2.47;;;27.10;99.90;;;;;;5090878;28;20443;-77
2022/07/13 11:06:29;;;;;;;5.33;2.33;;;26.90;99.90;;;;;;5080954;28;20475;-78
2022/07/13 11:09:20;;;;;;;2.07;1.97;;;26.80;99.90;;;;;;5076111;28;20459;-78
2022/07/13 11:11:53;;;;;;;3.00;2.40;;;26.80;99.90;;;;;;5066622;28;20478;-78
2022/07/13 11:14:59;;;;;;;2.00;1.80;;;26.70;99.90;;;;;;5084516;28;20429;-78
2022/07/13 11:17:27;;;;;;;3.37;2.20;;;26.70;99.90;;;;;;5077612;28;20448;-78
2022/07/13 11:19:59;;;;;;;4.80;2.80;;;26.70;99.90;;;;;;5075475;28;20465;-78
2022/07/13 11:25:13;;;;;;;3.83;2.50;;;26.70;99.90;;;;;;5076727;28;20511;-78
2022/07/13 11:25:27;;;;;;;2.63;2.47;;;26.60;99.90;;;;;;5076246;28;20856;-77
2022/07/13 11:28:05;;;;;;;2.67;2.47;;;26.70;99.90;;;;;;5077342;28;20848;-78
2022/07/13 11:30:36;;;;;;;4.30;3.07;;;26.70;99.90;;;;;;5076036;28;20464;-78
2022/07/13 11:33:03;;;;;;;4.73;3.80;;;26.80;99.90;;;;;;5084462;28;20492;-78
2022/07/13 11:35:30;;;;;;;2.50;2.30;;;26.80;99.90;;;;;;5094055;28;20432;-77
2022/07/13 11:37:57;;;;;;;7.00;1.87;;;26.90;99.90;;;;;;5078077;28;20443;-78
2022/07/13 11:40:31;;;;;;;1.87;1.77;;;26.90;99.90;;;;;;5073874;28;20471;-77
2022/07/13 11:43:03;;;;;;;2.23;2.03;;;26.80;99.90;;;;;;5073770;28;20434;-77
2022/07/13 11:45:31;;;;;;;2.10;2.00;;;26.80;99.90;;;;;;5073006;28;20464;-78
2022/07/13 11:48:00;;;;;;;2.90;2.00;;;26.80;99.90;;;;;;5072680;28;20452;-77
2022/07/13 11:50:47;;;;;;;1.83;1.73;;;26.80;99.90;;;;;;5073241;28;20816;-77
2022/07/13 11:53:22;;;;;;;2.00;1.83;;;26.80;99.90;;;;;;5073357;28;20471;-77
2022/07/13 11:55:49;;;;;;;2.00;1.90;;;;;;;;;;5073204;28;20448;-78
2022/07/13 11:58:25;;;;;;;8.47;7.77;;;26.90;99.90;;;;;;5073093;28;20920;-77
2022/07/13 12:00:52;;;;;;;3.10;2.17;;;26.90;99.90;;;;;;5073027;28;20464;-77
2022/07/13 12:03:26;;;;;;;2.77;2.17;;;27.00;99.90;;;;;;5073930;28;20445;-78
2022/07/13 12:05:53;;;;;;;4.00;2.17;;;27.10;99.90;;;;;;5074510;28;20428;-78
2022/07/13 12:08:20;;;;;;;1.90;1.80;;;27.20;99.90;;;;;;5076047;28;20472;-78
2022/07/13 12:10:46;;;;;;;2.17;2.03;;;27.20;99.90;;;;;;5076167;28;20472;-78
2022/07/13 12:13:13;;;;;;;6.80;2.97;;;27.10;99.90;;;;;;5076308;28;20484;-78
2022/07/13 12:15:41;;;;;;;2.53;2.20;;;27.10;99.90;;;;;;5077075;28;20823;-78
2022/07/13 12:18:09;;;;;;;3.53;2.00;;;27.00;99.90;;;;;;5079063;28;20449;-78
2022/07/13 12:20:36;;;;;;;1.93;1.83;;;26.90;99.90;;;;;;5079345;28;20490;-78
2022/07/13 12:23:06;;;;;;;3.97;2.20;;;26.90;99.90;;;;;;5080236;28;20539;-78
2022/07/13 12:25:35;;;;;;;2.83;2.03;;;26.90;99.90;;;;;;5079828;28;20436;-78
2022/07/13 12:28:04;;;;;;;3.27;2.53;;;26.90;99.90;;;;;;5079160;28;20471;-78
2022/07/13 12:30:33;;;;;;;4.00;3.00;;;27.00;99.90;;;;;;5079069;28;20468;-78
2022/07/13 12:33:02;;;;;;;2.57;2.37;;;27.10;99.90;;;;;;5079190;28;20495;-77
2022/07/13 12:35:30;;;;;;;2.70;2.50;;;27.20;99.90;;;;;;5075475;28;20536;-77
2022/07/13 12:37:58;;;;;;;5.90;3.50;;;27.20;99.90;;;;;;5076455;28;20878;-77
2022/07/13 12:40:41;;;;;;;2.20;2.00;;;27.20;99.90;;;;;;5078278;28;20468;-77
2022/07/13 12:43:17;;;;;;;3.00;2.80;;;27.30;99.90;;;;;;5076640;28;20476;-77
2022/07/13 12:45:46;;;;;;;2.77;2.57;;;27.50;99.90;;;;;;5076507;28;20432;-77
2022/07/13 12:48:15;;;;;;;5.53;4.40;;;27.70;99.90;;;;;;5077332;28;20451;-77
2022/07/13 12:50:42;;;;;;;2.13;2.00;;;27.80;99.90;;;;;;5076570;28;20893;-77
2022/07/13 12:53:09;;;;;;;2.77;2.53;;;27.70;99.90;;;;;;5077683;28;20480;-77
2022/07/13 12:55:50;;;;;;;2.03;1.93;;;27.70;99.90;;;;;;5077141;28;20456;-76
2022/07/13 12:58:17;;;;;;;3.43;1.70;;;27.60;99.90;;;;;;5076191;28;20482;-77
2022/07/13 13:00:44;;;;;;;13.73;5.30;;;27.60;99.90;;;;;;5075769;28;20465;-77
2022/07/13 13:03:11;;;;;;;2.60;1.97;;;27.60;99.90;;;;;;5077111;28;20440;-78